createdAt,value
2022-11-20T00:02:15.654Z,1.60
2022-11-20T00:06:02.260Z,1.70
2022-11-20T00:09:44.145Z,1.38
2022-11-20T00:13:26.068Z,1.60
2022-11-20T00:17:08.234Z,1.60
2022-11-20T00:20:50.139Z,1.40
2022-11-20T00:24:32.018Z,1.52
2022-11-20T00:28:13.919Z,1.40
2022-11-20T00:31:55.792Z,1.40
2022-11-20T00:35:37.678Z,1.80
2022-11-20T00:39:19.872Z,1.60
2022-11-20T00:43:01.992Z,1.48
2022-11-20T00:46:43.865Z,1.50
2022-11-20T00:50:25.815Z,1.50
2022-11-20T00:54:10.522Z,1.45
2022-11-20T00:57:52.479Z,1.40
2022-11-20T01:01:34.391Z,1.60
2022-11-20T01:05:16.419Z,1.50
2022-11-20T01:09:00.293Z,1.90
2022-11-20T01:12:42.252Z,1.65
2022-11-20T01:16:30.900Z,1.55
2022-11-20T01:20:12.791Z,1.77
2022-11-20T01:23:55.208Z,1.70
2022-11-20T01:27:37.273Z,1.55
2022-11-20T01:31:27.375Z,1.52
2022-11-20T01:35:10.694Z,1.33
2022-11-20T01:38:54.259Z,1.52
2022-11-20T01:42:55.027Z,1.52
2022-11-20T01:46:39.461Z,1.40
2022-11-20T01:50:29.968Z,1.38
2022-11-20T01:54:26.587Z,1.10
2022-11-20T01:58:09.552Z,0.98
2022-11-20T02:01:51.506Z,0.73
2022-11-20T02:05:55.303Z,0.80
2022-11-20T02:09:37.179Z,0.70
2022-11-20T02:13:38.007Z,0.60
2022-11-20T02:17:19.943Z,0.65
2022-11-20T02:21:15.354Z,0.60
2022-11-20T02:25:00.762Z,0.45
2022-11-20T02:28:43.018Z,0.30
2022-11-20T02:32:27.990Z,0.30
2022-11-20T02:36:15.280Z,0.30
2022-11-20T02:39:57.462Z,0.30
2022-11-20T02:43:39.458Z,0.30
2022-11-20T02:47:21.323Z,0.57
2022-11-20T02:51:03.386Z,0.40
2022-11-20T02:54:45.248Z,0.30
2022-11-20T02:58:27.136Z,0.30
2022-11-20T03:02:09.194Z,0.30
2022-11-20T03:05:51.084Z,0.20
2022-11-20T03:09:32.985Z,0.30
2022-11-20T03:13:14.925Z,0.20
2022-11-20T03:16:57.353Z,0.22
2022-11-20T03:20:39.236Z,0.20
2022-11-20T03:24:21.141Z,0.30
2022-11-20T03:28:03.105Z,0.30
2022-11-20T03:31:45.125Z,0.30
2022-11-20T03:35:27.425Z,0.40
2022-11-20T03:39:10.212Z,0.30
2022-11-20T03:42:52.135Z,0.28
2022-11-20T03:46:34.066Z,0.30
2022-11-20T03:50:16.127Z,0.38
2022-11-20T03:54:00.854Z,0.30
2022-11-20T03:57:42.767Z,0.30
2022-11-20T04:01:30.550Z,0.30
2022-11-20T04:05:12.551Z,0.32
2022-11-20T04:09:00.753Z,0.40
2022-11-20T04:12:42.665Z,0.30
2022-11-20T04:16:25.947Z,0.30
2022-11-20T04:20:08.357Z,0.30
2022-11-20T04:23:51.530Z,0.20
2022-11-20T04:27:33.426Z,0.38
2022-11-20T04:31:19.077Z,0.20
2022-11-20T04:35:01.001Z,0.20
2022-11-20T04:38:43.772Z,0.30
2022-11-20T04:42:31.871Z,0.30
2022-11-20T04:46:13.730Z,0.30
2022-11-20T04:49:55.847Z,0.30
2022-11-20T04:53:37.854Z,0.30
2022-11-20T04:57:20.445Z,0.30
2022-11-20T05:01:13.294Z,0.30
2022-11-20T05:04:55.274Z,0.40
2022-11-20T05:08:37.152Z,0.35
2022-11-20T05:12:19.088Z,0.52
2022-11-20T05:16:09.942Z,0.50
2022-11-20T05:19:53.192Z,0.82
2022-11-20T05:23:35.634Z,0.73
2022-11-20T05:27:17.746Z,1.00
2022-11-20T05:31:13.266Z,1.00
2022-11-20T05:34:55.177Z,0.80
2022-11-20T05:38:37.051Z,1.40
2022-11-20T05:42:34.017Z,1.23
2022-11-20T05:46:18.951Z,1.45
2022-11-20T05:50:02.828Z,1.27
2022-11-20T05:53:48.620Z,1.67
2022-11-20T05:57:32.403Z,1.48
2022-11-20T06:01:24.289Z,1.60
2022-11-20T06:05:06.745Z,1.45
2022-11-20T06:08:49.497Z,1.92
2022-11-20T06:12:33.871Z,2.00
2022-11-20T06:16:17.907Z,1.73
2022-11-20T06:19:59.846Z,1.92
2022-11-20T06:23:42.349Z,1.88
2022-11-20T06:27:24.318Z,1.40
2022-11-20T06:31:07.724Z,2.50
2022-11-20T06:34:49.614Z,2.30
2022-11-20T06:38:31.747Z,2.30
2022-11-20T06:42:13.672Z,2.25
2022-11-20T06:46:00.114Z,2.03
2022-11-20T06:49:42.280Z,3.13
2022-11-20T06:53:25.283Z,1.98
2022-11-20T06:57:07.249Z,2.10
2022-11-20T07:00:49.134Z,1.98
2022-11-20T07:04:31.143Z,1.90
2022-11-20T07:08:13.505Z,2.15
2022-11-20T07:11:55.413Z,1.98
2022-11-20T07:15:37.273Z,1.70
2022-11-20T07:19:19.345Z,2.03
2022-11-20T07:23:01.394Z,1.65
2022-11-20T07:26:43.302Z,1.80
2022-11-20T07:30:25.951Z,1.75
2022-11-20T07:34:07.929Z,1.50
2022-11-20T07:37:49.912Z,2.35
2022-11-20T07:41:32.226Z,2.08
2022-11-20T07:45:14.158Z,1.63
2022-11-20T07:48:56.184Z,2.08
2022-11-20T07:52:38.148Z,2.08
2022-11-20T07:56:20.038Z,2.92
2022-11-20T08:00:01.993Z,1.73
2022-11-20T08:03:43.933Z,2.00
2022-11-20T08:07:25.866Z,2.00
2022-11-20T08:11:26.589Z,2.75
2022-11-20T08:15:13.036Z,2.38
2022-11-20T08:22:37.363Z,2.05
2022-11-20T08:26:19.367Z,2.88
2022-11-20T08:30:01.273Z,2.88
2022-11-20T08:33:43.201Z,2.90
2022-11-20T08:37:25.068Z,3.10
2022-11-20T08:41:26.503Z,2.85
2022-11-20T08:45:08.911Z,2.72
2022-11-20T08:48:50.878Z,3.25
2022-11-20T08:52:36.983Z,2.50
2022-11-20T08:56:21.581Z,3.38
2022-11-20T09:00:07.148Z,3.00
2022-11-20T09:03:49.350Z,2.95
2022-11-20T09:07:31.576Z,3.10
2022-11-20T09:11:13.608Z,2.42
2022-11-20T09:14:55.482Z,3.05
2022-11-20T09:18:38.397Z,2.90
2022-11-20T09:22:20.334Z,2.45
2022-11-20T09:26:07.327Z,2.90
2022-11-20T09:29:49.279Z,2.67
2022-11-20T09:33:31.318Z,2.50
2022-11-20T09:37:13.247Z,2.83
2022-11-20T09:41:03.583Z,3.35
2022-11-20T09:45:00.487Z,2.70
2022-11-20T09:48:46.966Z,2.63
2022-11-20T09:52:37.715Z,2.60
2022-11-20T09:56:22.817Z,2.42
2022-11-20T10:00:07.205Z,2.72
2022-11-20T10:04:15.002Z,2.20
2022-11-20T10:08:17.123Z,2.58
2022-11-20T10:12:14.078Z,2.28
2022-11-20T10:16:38.011Z,2.58
2022-11-20T10:20:54.933Z,2.60
2022-11-20T10:24:45.454Z,2.17
2022-11-20T10:29:08.676Z,1.90
2022-11-20T10:32:55.811Z,2.10
2022-11-20T10:36:46.476Z,2.00
2022-11-20T10:40:44.299Z,2.20
2022-11-20T10:44:53.729Z,2.58
2022-11-20T10:48:38.994Z,2.38
2022-11-20T10:52:33.957Z,2.45
2022-11-20T10:56:26.105Z,2.85
2022-11-20T11:00:12.063Z,2.58
2022-11-20T11:03:56.198Z,2.30
2022-11-20T11:07:42.416Z,2.63
2022-11-20T11:11:29.049Z,2.65
2022-11-20T11:15:38.064Z,2.10
2022-11-20T11:19:20.277Z,2.53
2022-11-20T11:23:02.474Z,2.28
2022-11-20T11:26:53.809Z,2.28
2022-11-20T11:30:46.062Z,2.17
2022-11-20T11:34:28.045Z,1.92
2022-11-20T11:38:16.522Z,1.75
2022-11-20T11:41:59.605Z,1.73
2022-11-20T11:45:53.931Z,2.47
2022-11-20T11:49:35.836Z,1.95
2022-11-20T11:53:24.097Z,2.13
2022-11-20T11:57:14.024Z,2.08
2022-11-20T12:01:01.722Z,2.55
2022-11-20T12:04:50.622Z,2.25
2022-11-20T12:08:52.761Z,2.28
2022-11-20T12:12:43.949Z,2.03
2022-11-20T12:16:26.192Z,2.08
2022-11-20T12:20:15.409Z,2.40
2022-11-20T12:24:07.843Z,1.90
2022-11-20T12:27:58.693Z,1.90
2022-11-20T12:32:01.871Z,3.33
2022-11-20T12:36:03.122Z,2.72
2022-11-20T12:39:50.699Z,1.83
2022-11-20T12:44:13.612Z,2.38
2022-11-20T12:48:26.036Z,1.73
2022-11-20T12:52:22.131Z,2.25
2022-11-20T12:56:25.784Z,2.15
2022-11-20T13:00:08.352Z,1.60
2022-11-20T13:03:57.846Z,1.48
2022-11-20T13:07:40.131Z,1.58
2022-11-20T13:11:41.246Z,1.38
2022-11-20T13:15:43.211Z,1.35
2022-11-20T13:19:26.128Z,1.30
2022-11-20T13:23:08.002Z,1.50
2022-11-20T13:27:09.858Z,1.30
2022-11-20T13:30:54.396Z,1.25
2022-11-20T13:34:37.127Z,0.75
2022-11-20T13:38:19.030Z,0.60
2022-11-20T13:42:29.050Z,0.60
2022-11-20T13:46:11.515Z,0.50
2022-11-20T13:49:57.994Z,0.50
2022-11-20T13:54:02.607Z,0.50
2022-11-20T13:58:05.430Z,0.60
2022-11-20T14:01:47.643Z,0.47
2022-11-20T14:05:32.611Z,0.40
2022-11-20T14:09:30.170Z,0.43
2022-11-20T14:13:20.016Z,0.73
2022-11-20T14:17:10.133Z,0.60
2022-11-20T14:20:52.036Z,0.77
2022-11-20T14:24:34.190Z,0.40
2022-11-20T14:28:28.099Z,0.70
2022-11-20T14:32:11.039Z,0.70
2022-11-20T14:35:58.502Z,0.70
2022-11-20T14:39:49.408Z,0.70
2022-11-20T14:43:31.295Z,0.43
2022-11-20T14:47:30.679Z,0.63
2022-11-20T14:51:24.482Z,0.80
2022-11-20T14:55:06.659Z,0.98
2022-11-20T14:58:57.740Z,1.10
2022-11-20T15:02:43.386Z,1.00
2022-11-20T15:06:27.893Z,1.50
2022-11-20T15:10:13.012Z,1.33
2022-11-20T15:13:55.503Z,1.20
2022-11-20T15:17:39.169Z,1.23
2022-11-20T15:21:24.956Z,1.77
2022-11-20T15:25:16.429Z,1.00
2022-11-20T15:28:58.471Z,1.23
2022-11-20T15:32:40.660Z,1.00
2022-11-20T15:36:22.580Z,1.20
2022-11-20T15:40:05.588Z,1.40
2022-11-20T15:43:47.619Z,0.80
2022-11-20T15:47:34.578Z,1.02
2022-11-20T15:51:30.369Z,1.20
2022-11-20T15:55:12.428Z,1.80
2022-11-20T15:58:54.636Z,1.15
2022-11-20T16:02:36.579Z,1.17
2022-11-20T16:06:18.880Z,1.10
2022-11-20T16:10:00.824Z,1.33
2022-11-20T16:14:01.864Z,1.08
2022-11-20T16:17:44.224Z,1.73
2022-11-20T16:21:32.460Z,1.50
2022-11-20T16:25:14.559Z,1.63
2022-11-20T16:28:57.125Z,1.73
2022-11-20T16:32:39.853Z,1.10
2022-11-20T16:36:24.206Z,1.10
2022-11-20T16:40:07.782Z,1.35
2022-11-20T16:43:51.955Z,1.10
2022-11-20T16:47:35.341Z,0.93
2022-11-20T16:51:17.615Z,1.65
2022-11-20T16:55:00.008Z,1.30
2022-11-20T16:58:42.287Z,1.50
2022-11-20T17:02:24.400Z,1.33
2022-11-20T17:06:36.076Z,1.48
2022-11-20T17:10:17.940Z,1.20
2022-11-20T17:14:04.002Z,1.52
2022-11-20T17:17:45.934Z,1.80
2022-11-20T17:21:29.718Z,2.10
2022-11-20T17:25:11.586Z,1.88
2022-11-20T17:28:59.855Z,1.95
2022-11-20T17:32:45.748Z,2.10
2022-11-20T17:36:28.684Z,2.00
2022-11-20T17:40:10.803Z,3.40
2022-11-20T17:44:00.397Z,7.80
2022-11-20T17:47:44.452Z,8.43
2022-11-20T17:51:29.082Z,9.77
2022-11-20T17:55:11.137Z,7.85
2022-11-20T17:58:53.260Z,10.35
2022-11-20T18:02:35.127Z,7.43
2022-11-20T18:06:20.451Z,10.23
2022-11-20T18:10:02.339Z,8.93
2022-11-20T18:14:04.527Z,10.38
2022-11-20T18:17:47.290Z,9.27
2022-11-20T18:21:30.516Z,11.65
2022-11-20T18:25:12.682Z,9.65
2022-11-20T18:28:55.355Z,9.57
2022-11-20T18:32:37.397Z,9.77
2022-11-20T18:36:24.615Z,9.52
2022-11-20T18:40:07.318Z,9.88
2022-11-20T18:44:09.634Z,10.52
2022-11-20T18:47:52.286Z,10.07
2022-11-20T18:51:34.476Z,8.10
2022-11-20T18:55:17.330Z,6.25
2022-11-20T18:59:01.679Z,6.28
2022-11-20T19:02:44.113Z,7.72
2022-11-20T19:06:27.058Z,7.10
2022-11-20T19:10:09.858Z,6.03
2022-11-20T19:13:52.432Z,6.13
2022-11-20T19:17:34.787Z,6.13
2022-11-20T19:21:19.210Z,7.60
2022-11-20T19:25:01.116Z,6.82
2022-11-20T19:28:44.671Z,7.80
2022-11-20T19:32:27.223Z,7.13
2022-11-20T19:36:13.466Z,6.53
2022-11-20T19:39:59.070Z,7.00
2022-11-20T19:43:41.404Z,5.93
2022-11-20T19:47:31.157Z,5.57
2022-11-20T19:51:30.835Z,3.15
2022-11-20T19:55:12.769Z,3.42
2022-11-20T19:58:57.352Z,3.25
2022-11-20T20:02:39.252Z,3.85
2022-11-20T20:06:24.263Z,3.17
2022-11-20T20:10:07.054Z,2.70
2022-11-20T20:13:49.189Z,2.50
2022-11-20T20:17:31.252Z,2.05
2022-11-20T20:21:15.756Z,1.85
2022-11-20T20:24:57.611Z,2.20
2022-11-20T20:28:40.334Z,2.78
2022-11-20T20:32:22.391Z,3.40
2022-11-20T20:36:08.678Z,1.60
2022-11-20T20:39:51.129Z,2.00
2022-11-20T20:43:53.037Z,2.10
2022-11-20T20:47:37.056Z,2.38
2022-11-20T20:51:18.952Z,2.33
2022-11-20T20:55:01.362Z,3.30
2022-11-20T20:58:43.592Z,3.40
2022-11-20T21:02:25.922Z,2.90
2022-11-20T21:06:10.019Z,3.22
2022-11-20T21:09:52.205Z,2.92
2022-11-20T21:13:36.058Z,4.65
2022-11-20T21:17:18.072Z,5.55
2022-11-20T21:21:19.348Z,3.72
2022-11-20T21:25:01.418Z,3.85
2022-11-20T21:28:44.452Z,4.30
2022-11-20T21:32:26.349Z,3.08
2022-11-20T21:36:10.213Z,3.17
2022-11-20T21:39:52.627Z,2.35
2022-11-20T21:43:35.052Z,2.22
2022-11-20T21:47:17.017Z,2.20
2022-11-20T21:51:10.959Z,2.13
2022-11-20T21:54:53.036Z,2.00
2022-11-20T21:58:39.858Z,2.40
2022-11-20T22:02:21.913Z,2.25
2022-11-20T22:06:05.057Z,2.40
2022-11-20T22:09:47.073Z,2.80
2022-11-20T22:13:47.961Z,2.97
2022-11-20T22:17:48.207Z,3.00
2022-11-20T22:21:31.874Z,2.65
2022-11-20T22:25:14.002Z,2.92
2022-11-20T22:28:58.592Z,2.28
2022-11-20T22:32:40.763Z,2.38
2022-11-20T22:36:28.423Z,2.30
2022-11-20T22:40:10.870Z,2.30
2022-11-20T22:44:00.162Z,2.55
2022-11-20T22:47:42.572Z,2.00
2022-11-20T22:51:26.691Z,2.60
2022-11-20T22:55:12.291Z,2.47
2022-11-20T22:58:57.999Z,2.60
2022-11-20T23:02:45.324Z,2.15
2022-11-20T23:06:28.347Z,2.58
2022-11-20T23:10:10.704Z,3.03
2022-11-20T23:14:02.720Z,3.63
2022-11-20T23:17:44.649Z,2.80
2022-11-20T23:21:27.373Z,2.92
2022-11-20T23:25:09.960Z,2.80
2022-11-20T23:28:53.994Z,2.28
2022-11-20T23:32:35.947Z,2.42
2022-11-20T23:36:19.046Z,2.45
2022-11-20T23:40:01.020Z,2.65
2022-11-20T23:43:42.997Z,2.15
2022-11-20T23:47:24.858Z,2.70
2022-11-20T23:51:07.884Z,2.35
2022-11-20T23:54:49.756Z,2.38
2022-11-20T23:58:34.456Z,2.13
